createdAt,value
2017-10-19T00:00:59.078Z,0
2017-10-19T00:02:11.331Z,0
2017-10-19T00:03:23.594Z,0
2017-10-19T00:04:36.165Z,0
2017-10-19T00:05:48.444Z,0
2017-10-19T00:07:01.009Z,0
2017-10-19T00:08:13.877Z,0
2017-10-19T00:09:25.824Z,0
2017-10-19T00:10:38.068Z,0
2017-10-19T00:11:49.996Z,0
2017-10-19T00:13:02.568Z,0
2017-10-19T00:14:14.818Z,0
2017-10-19T00:15:27.076Z,0
2017-10-19T00:16:39.678Z,0
2017-10-19T00:17:52.251Z,0
2017-10-19T00:19:05.087Z,0
2017-10-19T00:20:17.658Z,0
2017-10-19T00:21:30.230Z,0
2017-10-19T00:22:42.830Z,0
2017-10-19T00:23:55.070Z,0
2017-10-19T00:25:07.649Z,0
2017-10-19T00:26:20.212Z,0
2017-10-19T00:27:32.457Z,0
2017-10-19T00:28:44.714Z,0
2017-10-19T00:29:57.273Z,0
2017-10-19T00:31:09.543Z,0
2017-10-19T00:32:21.790Z,0
2017-10-19T00:33:34.363Z,0
2017-10-19T00:34:46.947Z,0
2017-10-19T00:35:59.201Z,0
2017-10-19T00:37:11.773Z,0
2017-10-19T00:38:24.346Z,0
2017-10-19T00:39:36.914Z,0
2017-10-19T00:40:48.835Z,0
2017-10-19T00:42:01.433Z,0
2017-10-19T00:43:14.000Z,0
2017-10-19T00:44:26.570Z,0
2017-10-19T00:45:38.830Z,0
2017-10-19T00:46:51.412Z,0
2017-10-19T00:48:03.965Z,0
2017-10-19T00:49:16.515Z,0
2017-10-19T00:50:29.073Z,0
2017-10-19T00:51:41.947Z,0
2017-10-19T00:52:54.516Z,0
2017-10-19T00:54:06.437Z,0
2017-10-19T00:55:19.014Z,0
2017-10-19T00:56:30.627Z,0
2017-10-19T00:57:42.873Z,0
2017-10-19T00:58:55.118Z,0
2017-10-19T01:00:07.678Z,0
2017-10-19T01:01:20.260Z,0
2017-10-19T01:02:32.506Z,0
2017-10-19T01:03:44.726Z,0
2017-10-19T01:04:57.286Z,0
2017-10-19T01:06:09.218Z,0
2017-10-19T01:07:21.465Z,0
2017-10-19T01:08:34.034Z,0
2017-10-19T01:09:46.605Z,0
2017-10-19T01:10:59.208Z,0
2017-10-19T01:12:11.771Z,0
2017-10-19T01:13:24.050Z,0
2017-10-19T01:14:36.287Z,0
2017-10-19T01:15:48.519Z,0
2017-10-19T01:17:01.106Z,0
2017-10-19T01:18:13.374Z,0
2017-10-19T01:19:25.948Z,0
2017-10-19T01:20:38.191Z,0
2017-10-19T01:21:50.436Z,0
2017-10-19T01:23:02.677Z,0
2017-10-19T01:24:15.541Z,0
2017-10-19T01:25:27.806Z,0
2017-10-19T01:26:40.369Z,0
2017-10-19T01:27:52.942Z,0
2017-10-19T01:29:05.210Z,0
2017-10-19T01:30:17.465Z,0
2017-10-19T01:31:30.060Z,0
2017-10-19T01:32:42.637Z,0
2017-10-19T01:33:55.217Z,0
2017-10-19T01:35:08.071Z,0
2017-10-19T01:36:20.634Z,0
2017-10-19T01:37:33.229Z,0
2017-10-19T01:38:44.831Z,0
2017-10-19T01:39:57.395Z,0
2017-10-19T01:41:09.641Z,0
2017-10-19T01:42:21.887Z,0
2017-10-19T01:43:34.141Z,0
2017-10-19T01:44:46.703Z,0
2017-10-19T01:45:59.274Z,0
2017-10-19T01:47:11.507Z,0
2017-10-19T01:48:24.069Z,0
2017-10-19T01:49:36.624Z,0
2017-10-19T01:50:49.206Z,0
2017-10-19T01:52:01.778Z,0
2017-10-19T01:53:14.030Z,0
2017-10-19T01:54:25.976Z,0
2017-10-19T01:55:37.899Z,0
2017-10-19T01:56:50.135Z,0
2017-10-19T01:58:02.705Z,0
2017-10-19T01:59:15.276Z,0
2017-10-19T02:00:27.521Z,0
2017-10-19T02:01:40.068Z,0
2017-10-19T02:02:52.637Z,0
2017-10-19T02:04:04.897Z,0
2017-10-19T02:05:17.468Z,0
2017-10-19T02:06:30.051Z,0
2017-10-19T02:07:42.610Z,0
2017-10-19T02:08:54.848Z,0
2017-10-19T02:10:07.411Z,0
2017-10-19T02:11:19.990Z,0
2017-10-19T02:12:31.586Z,0
2017-10-19T02:13:44.184Z,0
2017-10-19T02:14:56.420Z,0
2017-10-19T02:16:08.666Z,0
2017-10-19T02:17:21.236Z,0
2017-10-19T02:18:34.106Z,0
2017-10-19T02:20:18.139Z,0
2017-10-19T02:21:30.720Z,0
2017-10-19T02:22:43.291Z,0
2017-10-19T02:23:56.112Z,0
2017-10-19T02:25:08.691Z,0
2017-10-19T02:26:21.278Z,0
2017-10-19T02:27:33.848Z,0
2017-10-19T02:28:46.404Z,0
2017-10-19T02:29:58.966Z,0
2017-10-19T02:31:11.234Z,0
2017-10-19T02:32:23.807Z,0
2017-10-19T02:33:35.727Z,0
2017-10-19T02:34:47.981Z,0
2017-10-19T02:36:00.249Z,0
2017-10-19T02:37:12.190Z,0
2017-10-19T02:38:24.443Z,0
2017-10-19T02:39:37.005Z,0
2017-10-19T02:40:49.276Z,0
2017-10-19T02:42:01.522Z,0
2017-10-19T02:43:14.091Z,0
2017-10-19T02:44:26.668Z,0
2017-10-19T02:45:38.920Z,0
2017-10-19T02:46:51.508Z,0
2017-10-19T02:48:04.075Z,0
2017-10-19T02:49:16.655Z,0
2017-10-19T02:50:29.217Z,0
2017-10-19T02:51:41.461Z,0
2017-10-19T02:52:54.007Z,0
2017-10-19T02:54:06.242Z,0
2017-10-19T02:55:18.498Z,0
2017-10-19T02:56:30.369Z,0
2017-10-19T02:57:42.940Z,0
2017-10-19T02:58:55.511Z,0
2017-10-19T03:00:08.098Z,0
2017-10-19T03:01:20.678Z,0
2017-10-19T03:02:33.548Z,0
2017-10-19T03:03:45.793Z,0
2017-10-19T03:04:58.039Z,0
2017-10-19T03:06:09.634Z,0
2017-10-19T03:07:21.880Z,0
2017-10-19T03:08:34.450Z,0
2017-10-19T03:09:47.022Z,0
2017-10-19T03:10:58.941Z,0
2017-10-19T03:12:11.513Z,0
2017-10-19T03:13:23.758Z,0
2017-10-19T03:14:36.328Z,0
2017-10-19T03:15:48.888Z,0
2017-10-19T03:17:01.471Z,0
2017-10-19T03:18:13.391Z,0
2017-10-19T03:19:25.961Z,0
2017-10-19T03:20:38.532Z,0
2017-10-19T03:21:51.102Z,0
2017-10-19T03:23:03.706Z,0
2017-10-19T03:24:16.252Z,0
2017-10-19T03:25:28.199Z,0
2017-10-19T03:26:40.435Z,0
2017-10-19T03:27:52.689Z,0
2017-10-19T03:29:05.501Z,0
2017-10-19T03:30:18.075Z,0
2017-10-19T03:31:30.325Z,0
2017-10-19T03:32:42.553Z,0
2017-10-19T03:33:54.810Z,0
2017-10-19T03:35:07.388Z,0
2017-10-19T03:36:19.625Z,0
2017-10-19T03:37:32.185Z,0
2017-10-19T03:38:44.442Z,0
2017-10-19T03:39:57.012Z,0
2017-10-19T03:41:09.263Z,0
2017-10-19T03:42:21.862Z,0
2017-10-19T03:43:34.425Z,0
2017-10-19T03:44:46.994Z,0
2017-10-19T03:45:58.940Z,0
2017-10-19T03:47:11.500Z,0
2017-10-19T03:48:23.736Z,0
2017-10-19T03:49:35.654Z,0
2017-10-19T03:50:48.224Z,0
2017-10-19T03:52:00.469Z,0
2017-10-19T03:53:12.398Z,0
2017-10-19T03:54:24.639Z,0
2017-10-19T03:55:36.906Z,0
2017-10-19T03:56:49.487Z,0
2017-10-19T03:58:02.048Z,0
2017-10-19T03:59:14.295Z,0
2017-10-19T04:00:26.546Z,0
2017-10-19T04:01:39.359Z,0
2017-10-19T04:02:51.604Z,0
2017-10-19T04:04:03.858Z,0
2017-10-19T04:05:15.821Z,0
2017-10-19T04:06:27.750Z,0
2017-10-19T04:07:39.987Z,0
2017-10-19T04:08:52.558Z,0
2017-10-19T04:10:05.136Z,0
2017-10-19T04:11:17.375Z,0
2017-10-19T04:12:29.953Z,0
2017-10-19T04:13:42.224Z,0
2017-10-19T04:14:54.462Z,0
2017-10-19T04:16:06.394Z,0
2017-10-19T04:17:18.952Z,0
2017-10-19T04:18:30.881Z,0
2017-10-19T04:19:43.119Z,0
2017-10-19T04:20:55.697Z,0
2017-10-19T04:22:07.941Z,0
2017-10-19T04:23:20.506Z,0
2017-10-19T04:24:32.752Z,0
2017-10-19T04:25:45.005Z,0
2017-10-19T04:26:56.943Z,0
2017-10-19T04:28:09.514Z,0
2017-10-19T04:29:22.092Z,0
2017-10-19T04:30:34.658Z,0
2017-10-19T04:31:47.226Z,0
2017-10-19T04:32:59.471Z,0
2017-10-19T04:34:12.041Z,0
2017-10-19T04:35:24.288Z,0
2017-10-19T04:36:36.546Z,0
2017-10-19T04:37:48.818Z,0
2017-10-19T04:39:01.064Z,0
2017-10-19T04:40:13.645Z,0
2017-10-19T04:41:26.215Z,0
2017-10-19T04:42:38.786Z,0
2017-10-19T04:43:51.356Z,0
2017-10-19T04:45:03.312Z,0
2017-10-19T04:46:15.248Z,0
2017-10-19T04:47:27.493Z,0
2017-10-19T04:48:40.072Z,0
2017-10-19T04:49:52.625Z,0
2017-10-19T04:51:05.208Z,0
2017-10-19T04:52:17.462Z,0
2017-10-19T04:53:29.721Z,0
2017-10-19T04:54:41.967Z,0
2017-10-19T04:55:54.214Z,0
2017-10-19T04:57:06.772Z,0
2017-10-19T04:58:19.362Z,0
2017-10-19T04:59:30.983Z,0
2017-10-19T05:00:43.246Z,0
2017-10-19T05:01:55.817Z,0
2017-10-19T05:03:08.070Z,0
2017-10-19T05:04:20.309Z,0
2017-10-19T05:05:32.561Z,0
2017-10-19T05:06:45.149Z,4
2017-10-19T05:07:57.694Z,4
2017-10-19T05:09:09.623Z,4
2017-10-19T05:10:22.190Z,4
2017-10-19T05:11:34.745Z,4
2017-10-19T05:12:47.302Z,8
2017-10-19T05:13:59.873Z,8
2017-10-19T05:15:12.442Z,8
2017-10-19T05:16:25.003Z,12
2017-10-19T05:17:37.835Z,16
2017-10-19T05:18:50.083Z,16
2017-10-19T05:20:02.314Z,24
2017-10-19T05:21:14.247Z,32
2017-10-19T05:22:26.517Z,32
2017-10-19T05:23:38.439Z,44
2017-10-19T05:24:51.012Z,48
2017-10-19T05:26:03.261Z,60
2017-10-19T05:27:15.183Z,72
2017-10-19T05:28:27.746Z,84
2017-10-19T05:29:40.305Z,96
2017-10-19T05:30:52.891Z,112
2017-10-19T05:32:05.132Z,120
2017-10-19T05:33:17.704Z,136
2017-10-19T05:34:30.274Z,152
2017-10-19T05:35:42.553Z,172
2017-10-19T05:36:55.125Z,192
2017-10-19T05:38:07.394Z,220
2017-10-19T05:39:20.231Z,244
2017-10-19T05:40:32.501Z,280
2017-10-19T05:41:45.073Z,312
2017-10-19T05:42:57.643Z,332
2017-10-19T05:44:09.890Z,360
2017-10-19T05:45:22.460Z,400
2017-10-19T05:46:34.717Z,424
2017-10-19T05:47:47.301Z,424
2017-10-19T05:48:59.547Z,468
2017-10-19T05:50:11.793Z,512
2017-10-19T05:51:24.037Z,544
2017-10-19T05:52:36.284Z,568
2017-10-19T05:53:48.530Z,600
2017-10-19T05:55:00.776Z,656
2017-10-19T05:56:13.346Z,724
2017-10-19T05:57:25.599Z,792
2017-10-19T05:58:38.162Z,856
2017-10-19T05:59:50.732Z,896
2017-10-19T06:01:02.986Z,976
2017-10-19T06:02:15.213Z,1016
2017-10-19T06:03:27.175Z,1072
2017-10-19T06:04:39.429Z,1100
2017-10-19T06:05:52.011Z,1152
2017-10-19T06:07:04.581Z,1192
2017-10-19T06:08:16.827Z,1276
2017-10-19T06:09:29.085Z,1292
2017-10-19T06:10:41.669Z,1356
2017-10-19T06:11:53.578Z,1432
2017-10-19T06:13:06.171Z,1488
2017-10-19T06:14:18.755Z,1556
2017-10-19T06:15:31.326Z,1628
2017-10-19T06:16:43.271Z,1688
2017-10-19T06:17:55.218Z,1752
2017-10-19T06:19:07.788Z,1852
2017-10-19T06:20:20.044Z,1884
2017-10-19T06:21:32.636Z,1916
2017-10-19T06:22:45.200Z,1956
2017-10-19T06:23:57.456Z,2000
2017-10-19T06:25:09.691Z,1976
2017-10-19T06:26:22.262Z,2064
2017-10-19T06:27:34.833Z,2156
2017-10-19T06:28:47.066Z,2232
2017-10-19T06:29:59.325Z,2280
2017-10-19T06:31:11.246Z,2364
2017-10-19T06:32:23.510Z,2376
2017-10-19T06:33:35.435Z,2448
2017-10-19T06:34:48.006Z,2596
2017-10-19T06:35:59.926Z,2696
2017-10-19T06:37:12.161Z,2784
2017-10-19T06:38:24.743Z,2912
2017-10-19T06:39:37.301Z,2816
2017-10-19T06:40:49.242Z,3016
2017-10-19T06:42:01.506Z,3140
2017-10-19T06:43:13.753Z,3124
2017-10-19T06:44:26.322Z,3204
2017-10-19T06:45:38.893Z,3236
2017-10-19T06:46:51.464Z,3636
2017-10-19T06:48:04.034Z,3620
2017-10-19T06:49:16.280Z,3804
2017-10-19T06:50:28.875Z,3884
2017-10-19T06:51:41.446Z,3852
2017-10-19T06:52:54.016Z,3928
2017-10-19T06:54:06.263Z,4252
2017-10-19T06:55:18.833Z,4324
2017-10-19T06:56:31.114Z,4484
2017-10-19T06:57:43.699Z,4712
2017-10-19T06:58:56.270Z,4784
2017-10-19T07:00:08.223Z,4724
2017-10-19T07:01:20.477Z,4896
2017-10-19T07:02:32.082Z,4944
2017-10-19T07:03:44.027Z,4996
2017-10-19T07:04:56.273Z,4980
2017-10-19T07:06:08.844Z,5196
2017-10-19T07:07:21.117Z,5192
2017-10-19T07:08:33.688Z,5240
2017-10-19T07:09:46.255Z,5280
2017-10-19T07:10:58.804Z,5552
2017-10-19T07:12:11.373Z,5648
2017-10-19T07:13:23.943Z,5736
2017-10-19T07:14:36.176Z,5952
2017-10-19T07:15:48.734Z,5864
2017-10-19T07:17:00.355Z,5832
2017-10-19T07:18:12.959Z,5968
2017-10-19T07:19:25.527Z,6076
2017-10-19T07:20:37.774Z,6204
2017-10-19T07:21:50.337Z,6036
2017-10-19T07:23:02.907Z,6356
2017-10-19T07:24:15.153Z,6736
2017-10-19T07:25:27.723Z,6924
2017-10-19T07:26:39.971Z,7080
2017-10-19T07:27:52.215Z,7200
2017-10-19T07:29:04.798Z,7568
2017-10-19T07:30:16.756Z,7848
2017-10-19T07:31:29.337Z,7860
2017-10-19T07:32:41.898Z,7596
2017-10-19T07:33:54.475Z,7716
2017-10-19T07:35:07.039Z,7836
2017-10-19T07:36:18.334Z,7932
2017-10-19T07:37:30.936Z,7964
2017-10-19T07:38:43.485Z,8240
2017-10-19T07:39:55.755Z,8304
2017-10-19T07:41:08.318Z,8420
2017-10-19T07:42:20.563Z,8100
2017-10-19T07:43:33.134Z,8124
2017-10-19T07:44:45.708Z,8440
2017-10-19T07:45:58.282Z,8636
2017-10-19T07:47:09.903Z,8708
2017-10-19T07:48:22.141Z,8540
2017-10-19T07:49:33.744Z,8300
2017-10-19T07:50:45.672Z,8644
2017-10-19T07:51:57.628Z,8608
2017-10-19T07:53:10.212Z,8864
2017-10-19T07:54:22.144Z,9404
2017-10-19T07:55:34.715Z,9656
2017-10-19T07:56:46.960Z,10100
2017-10-19T07:57:59.532Z,10252
2017-10-19T07:59:11.778Z,10060
2017-10-19T08:00:24.079Z,9756
2017-10-19T08:01:36.319Z,9548
2017-10-19T08:02:48.565Z,9560
2017-10-19T08:04:01.145Z,9464
2017-10-19T08:05:13.388Z,9324
2017-10-19T08:06:25.326Z,9548
2017-10-19T08:07:37.272Z,10004
2017-10-19T08:08:49.831Z,10184
2017-10-19T08:10:02.091Z,9808
2017-10-19T08:11:14.372Z,9552
2017-10-19T08:12:26.957Z,9412
2017-10-19T08:13:39.537Z,9288
2017-10-19T08:14:52.097Z,9484
2017-10-19T08:16:04.342Z,9720
2017-10-19T08:17:16.616Z,9736
2017-10-19T08:18:29.173Z,9992
2017-10-19T08:19:41.754Z,9988
2017-10-19T08:20:53.382Z,10104
2017-10-19T08:22:05.953Z,10032
2017-10-19T08:23:18.220Z,8956
2017-10-19T08:24:30.473Z,8324
2017-10-19T08:25:42.406Z,8028
2017-10-19T08:26:54.654Z,8368
2017-10-19T08:28:07.223Z,8828
2017-10-19T08:29:19.493Z,9232
2017-10-19T08:30:31.739Z,9556
2017-10-19T08:31:43.992Z,9412
2017-10-19T08:32:56.565Z,9312
2017-10-19T08:34:09.146Z,9612
2017-10-19T08:35:21.730Z,10196
2017-10-19T08:36:34.366Z,11220
2017-10-19T08:37:46.621Z,10884
2017-10-19T08:38:59.184Z,10928
2017-10-19T08:40:11.114Z,10736
2017-10-19T08:41:23.700Z,10836
2017-10-19T08:42:35.954Z,10332
2017-10-19T08:43:48.541Z,10788
2017-10-19T08:45:00.786Z,10780
2017-10-19T08:46:12.736Z,10176
2017-10-19T08:47:25.010Z,10156
2017-10-19T08:48:37.276Z,10096
2017-10-19T08:49:49.844Z,10396
2017-10-19T08:51:02.418Z,10228
2017-10-19T08:52:14.368Z,10156
2017-10-19T08:53:26.614Z,10696
2017-10-19T08:54:39.177Z,10752
2017-10-19T08:55:51.736Z,10896
2017-10-19T08:57:03.993Z,11660
2017-10-19T08:58:15.915Z,11680
2017-10-19T08:59:28.484Z,11112
2017-10-19T09:00:40.738Z,10640
2017-10-19T09:01:53.301Z,10356
2017-10-19T09:03:05.546Z,10456
2017-10-19T09:04:18.122Z,10372
2017-10-19T09:05:30.402Z,10472
2017-10-19T09:06:42.992Z,10336
2017-10-19T09:07:55.285Z,10656
2017-10-19T09:09:07.849Z,10512
2017-10-19T09:10:20.429Z,11360
2017-10-19T09:11:33.016Z,12140
2017-10-19T09:12:44.966Z,11404
2017-10-19T09:13:57.584Z,11872
2017-10-19T09:15:09.852Z,12084
2017-10-19T09:16:22.429Z,11828
2017-10-19T09:17:34.682Z,11352
2017-10-19T09:18:46.927Z,10868
2017-10-19T09:19:59.499Z,10868
2017-10-19T09:21:11.093Z,10912
2017-10-19T09:22:23.037Z,10988
2017-10-19T09:23:35.277Z,11964
2017-10-19T09:24:46.893Z,11744
2017-10-19T09:25:59.139Z,11132
2017-10-19T09:27:11.394Z,10372
2017-10-19T09:28:23.944Z,10440
2017-10-19T09:29:36.508Z,11368
2017-10-19T09:30:48.754Z,12884
2017-10-19T09:32:01.317Z,13356
2017-10-19T09:33:13.238Z,12916
2017-10-19T09:34:25.509Z,11748
2017-10-19T09:35:38.079Z,11488
2017-10-19T09:36:50.638Z,11732
2017-10-19T09:38:03.145Z,11880
2017-10-19T09:39:15.392Z,11648
2017-10-19T09:40:27.639Z,10956
2017-10-19T09:41:39.882Z,11044
2017-10-19T09:42:52.464Z,11372
2017-10-19T09:44:04.406Z,11904
2017-10-19T09:45:16.344Z,11336
2017-10-19T09:46:28.916Z,11380
2017-10-19T09:47:41.501Z,11560
2017-10-19T09:48:53.757Z,12552
2017-10-19T09:50:06.332Z,12896
2017-10-19T09:51:18.897Z,12540
2017-10-19T09:52:30.818Z,11904
2017-10-19T09:53:43.072Z,11836
2017-10-19T09:54:55.342Z,12260
2017-10-19T09:56:07.929Z,12292
2017-10-19T09:57:19.858Z,12536
2017-10-19T09:58:32.448Z,12364
2017-10-19T09:59:45.017Z,12224
2017-10-19T10:00:57.596Z,12572
2017-10-19T10:02:09.545Z,12864
2017-10-19T10:03:22.128Z,12996
2017-10-19T10:04:34.363Z,13604
2017-10-19T10:05:46.608Z,13708
2017-10-19T10:06:58.841Z,13356
2017-10-19T10:08:11.470Z,13468
2017-10-19T10:09:23.720Z,13664
2017-10-19T10:10:36.290Z,13236
2017-10-19T10:11:48.599Z,12556
2017-10-19T10:13:00.844Z,11604
2017-10-19T10:14:12.764Z,11812
2017-10-19T10:15:25.336Z,13464
2017-10-19T10:16:37.581Z,14072
2017-10-19T10:17:49.826Z,13936
2017-10-19T10:19:02.080Z,13240
2017-10-19T10:20:14.668Z,13528
2017-10-19T10:21:26.597Z,12852
2017-10-19T10:22:38.846Z,12676
2017-10-19T10:23:51.137Z,13100
2017-10-19T10:25:03.701Z,13216
2017-10-19T10:26:15.625Z,13240
2017-10-19T10:27:28.191Z,12924
2017-10-19T10:28:40.437Z,12868
2017-10-19T10:29:52.391Z,13536
2017-10-19T10:31:04.959Z,13936
2017-10-19T10:32:17.206Z,14320
2017-10-19T10:33:29.759Z,14380
2017-10-19T10:34:42.340Z,13916
2017-10-19T10:35:54.920Z,13824
2017-10-19T10:37:07.482Z,11752
2017-10-19T10:38:19.417Z,11956
2017-10-19T10:39:31.999Z,13160
2017-10-19T10:40:44.569Z,13860
2017-10-19T10:41:56.814Z,13808
2017-10-19T10:43:09.394Z,14072
2017-10-19T10:44:21.956Z,15100
2017-10-19T10:45:34.526Z,15212
2017-10-19T10:46:47.087Z,14604
2017-10-19T10:47:59.656Z,14112
2017-10-19T10:49:11.913Z,14392
2017-10-19T10:50:24.485Z,14956
2017-10-19T10:51:36.730Z,15708
2017-10-19T10:52:49.008Z,14676
2017-10-19T10:54:00.946Z,13304
2017-10-19T10:55:13.192Z,13764
2017-10-19T10:56:25.763Z,14064
2017-10-19T10:57:37.683Z,15052
2017-10-19T10:58:49.954Z,16316
2017-10-19T11:00:02.512Z,16624
2017-10-19T11:01:14.788Z,16200
2017-10-19T11:02:26.399Z,15476
2017-10-19T11:03:38.986Z,16884
2017-10-19T11:04:51.557Z,16424
2017-10-19T11:06:04.127Z,15836
2017-10-19T11:07:15.748Z,16564
2017-10-19T11:08:27.994Z,16728
2017-10-19T11:09:40.573Z,16984
2017-10-19T11:10:53.160Z,16672
2017-10-19T11:12:05.719Z,16708
2017-10-19T11:13:17.988Z,15796
2017-10-19T11:14:30.241Z,16284
2017-10-19T11:15:42.817Z,17280
2017-10-19T11:16:55.064Z,16892
2017-10-19T11:18:07.634Z,16088
2017-10-19T11:19:19.905Z,9164
2017-10-19T11:20:31.863Z,8112
2017-10-19T11:21:44.171Z,9932
2017-10-19T11:22:56.423Z,11664
2017-10-19T11:24:08.996Z,17248
2017-10-19T11:25:21.259Z,16284
2017-10-19T11:26:33.828Z,16600
2017-10-19T11:27:46.399Z,15740
2017-10-19T11:28:58.978Z,16124
2017-10-19T11:30:10.923Z,14112
2017-10-19T11:31:23.486Z,11832
2017-10-19T11:32:35.741Z,10840
2017-10-19T11:33:47.678Z,11508
2017-10-19T11:35:00.248Z,10264
2017-10-19T11:36:12.520Z,10336
2017-10-19T11:37:25.389Z,9436
2017-10-19T11:38:37.950Z,9348
2017-10-19T11:39:50.206Z,9628
2017-10-19T11:41:02.777Z,10164
2017-10-19T11:42:15.353Z,10352
2017-10-19T11:43:27.595Z,14416
2017-10-19T11:44:40.152Z,13960
2017-10-19T11:45:52.408Z,13616
2017-10-19T11:47:04.680Z,12716
2017-10-19T11:48:16.925Z,12856
2017-10-19T11:49:29.484Z,12268
2017-10-19T11:50:41.449Z,11912
2017-10-19T11:51:53.388Z,11680
2017-10-19T11:53:05.959Z,11728
2017-10-19T11:54:18.543Z,11860
2017-10-19T11:55:30.798Z,11736
2017-10-19T11:56:43.070Z,11808
2017-10-19T11:57:55.673Z,11908
2017-10-19T11:59:08.244Z,11788
2017-10-19T12:00:20.517Z,12400
2017-10-19T12:01:32.466Z,12436
2017-10-19T12:02:45.056Z,11792
2017-10-19T12:03:57.304Z,11556
2017-10-19T12:05:08.919Z,11056
2017-10-19T12:06:20.885Z,10292
2017-10-19T12:07:33.155Z,10960
2017-10-19T12:08:45.727Z,11332
2017-10-19T12:09:58.297Z,10828
2017-10-19T12:11:10.576Z,10500
2017-10-19T12:12:23.163Z,10680
2017-10-19T12:13:35.410Z,10304
2017-10-19T12:14:48.009Z,9960
2017-10-19T12:16:00.583Z,10228
2017-10-19T12:17:11.904Z,11088
2017-10-19T12:18:24.481Z,11224
2017-10-19T12:19:37.062Z,11220
2017-10-19T12:20:48.692Z,11668
2017-10-19T12:22:01.254Z,11228
2017-10-19T12:23:13.499Z,10424
2017-10-19T12:24:25.754Z,9684
2017-10-19T12:25:38.017Z,9532
2017-10-19T12:26:50.587Z,9244
2017-10-19T12:28:03.157Z,9468
2017-10-19T12:29:15.728Z,9416
2017-10-19T12:30:28.297Z,9632
2017-10-19T12:31:40.570Z,9840
2017-10-19T12:32:52.823Z,9808
2017-10-19T12:34:05.420Z,9912
2017-10-19T12:35:17.356Z,10080
2017-10-19T12:36:29.602Z,10160
2017-10-19T12:37:42.173Z,10032
2017-10-19T12:38:54.419Z,10016
2017-10-19T12:40:06.688Z,9816
2017-10-19T12:41:19.284Z,9596
2017-10-19T12:42:31.530Z,10000
2017-10-19T12:43:44.101Z,10552
2017-10-19T12:44:56.047Z,11220
2017-10-19T12:46:07.968Z,11388
2017-10-19T12:47:20.545Z,11160
2017-10-19T12:48:33.123Z,10748
2017-10-19T12:49:45.393Z,10548
2017-10-19T12:50:57.974Z,10596
2017-10-19T12:52:10.221Z,10096
2017-10-19T12:53:22.791Z,9952
2017-10-19T12:54:35.036Z,10248
2017-10-19T12:55:47.311Z,10412
2017-10-19T12:56:59.252Z,9680
2017-10-19T12:58:11.506Z,9844
2017-10-19T12:59:23.752Z,10092
2017-10-19T13:00:36.324Z,10844
2017-10-19T13:01:48.920Z,11400
2017-10-19T13:03:01.506Z,11708
2017-10-19T13:04:13.751Z,11324
2017-10-19T13:05:26.355Z,10232
2017-10-19T13:06:38.617Z,8564
2017-10-19T13:07:50.876Z,6668
2017-10-19T13:09:03.467Z,10192
2017-10-19T13:10:16.029Z,10164
2017-10-19T13:11:28.274Z,11328
2017-10-19T13:12:40.545Z,11784
2017-10-19T13:13:52.792Z,11696
2017-10-19T13:15:04.737Z,11188
2017-10-19T13:16:17.308Z,11116
2017-10-19T13:17:29.882Z,10556
2017-10-19T13:18:42.123Z,9912
2017-10-19T13:19:54.387Z,9496
2017-10-19T13:21:06.666Z,7736
2017-10-19T13:22:18.936Z,7344
2017-10-19T13:23:31.183Z,7208
2017-10-19T13:24:43.785Z,7344
2017-10-19T13:25:56.376Z,7244
2017-10-19T13:27:08.621Z,7300
2017-10-19T13:28:20.867Z,7276
2017-10-19T13:29:33.118Z,6696
2017-10-19T13:30:45.695Z,6588
2017-10-19T13:31:57.952Z,6576
2017-10-19T13:33:10.229Z,6396
2017-10-19T13:34:22.501Z,6620
2017-10-19T13:35:34.446Z,6824
2017-10-19T13:36:47.021Z,7148
2017-10-19T13:37:59.269Z,7248
2017-10-19T13:39:11.526Z,6660
2017-10-19T13:40:23.771Z,5964
2017-10-19T13:41:35.699Z,6064
2017-10-19T13:42:47.951Z,6376
2017-10-19T13:44:00.519Z,6372
2017-10-19T13:45:12.785Z,6348
2017-10-19T13:46:25.350Z,6944
2017-10-19T13:47:37.945Z,7316
2017-10-19T13:48:50.224Z,7192
2017-10-19T13:50:02.787Z,7116
2017-10-19T13:51:15.057Z,7844
2017-10-19T13:52:27.303Z,8120
2017-10-19T13:53:39.233Z,7564
2017-10-19T13:54:51.468Z,7812
2017-10-19T13:56:03.418Z,7456
2017-10-19T13:57:15.998Z,6588
2017-10-19T13:58:28.504Z,6412
2017-10-19T13:59:40.463Z,6544
2017-10-19T14:00:52.722Z,5676
2017-10-19T14:02:04.346Z,5216
2017-10-19T14:03:16.297Z,4768
2017-10-19T14:04:28.559Z,5668
2017-10-19T14:05:40.806Z,6240
2017-10-19T14:06:53.051Z,6128
2017-10-19T14:08:05.619Z,6168
2017-10-19T14:09:17.867Z,6280
2017-10-19T14:10:30.444Z,6016
2017-10-19T14:11:43.008Z,6188
2017-10-19T14:12:55.253Z,6144
2017-10-19T14:14:07.832Z,5688
2017-10-19T14:15:19.453Z,5656
2017-10-19T14:16:32.016Z,5248
2017-10-19T14:17:44.586Z,5396
2017-10-19T14:18:56.515Z,5480
2017-10-19T14:20:08.778Z,5532
2017-10-19T14:21:21.023Z,5528
2017-10-19T14:22:33.594Z,5520
2017-10-19T14:23:46.177Z,5676
2017-10-19T14:24:58.118Z,5260
2017-10-19T14:26:10.052Z,5440
2017-10-19T14:27:21.682Z,5416
2017-10-19T14:28:34.284Z,5068
2017-10-19T14:29:46.526Z,4604
2017-10-19T14:30:59.089Z,4688
2017-10-19T14:32:11.659Z,4944
2017-10-19T14:33:23.905Z,4484
2017-10-19T14:34:35.826Z,4560
2017-10-19T14:35:48.070Z,4268
2017-10-19T14:37:00.642Z,4328
2017-10-19T14:38:12.569Z,4184
2017-10-19T14:39:25.158Z,4308
2017-10-19T14:40:37.086Z,4172
2017-10-19T14:41:49.359Z,3904
2017-10-19T14:43:01.945Z,3864
2017-10-19T14:44:14.180Z,3708
2017-10-19T14:45:26.760Z,3616
2017-10-19T14:46:38.381Z,3396
2017-10-19T14:47:50.602Z,3356
2017-10-19T14:49:02.848Z,3100
2017-10-19T14:50:14.794Z,3228
2017-10-19T14:51:27.048Z,3360
2017-10-19T14:52:39.292Z,3256
2017-10-19T14:53:50.905Z,3048
2017-10-19T14:55:03.151Z,3028
2017-10-19T14:56:15.721Z,3132
2017-10-19T14:57:27.977Z,3040
2017-10-19T14:58:39.912Z,2908
2017-10-19T14:59:52.159Z,3020
2017-10-19T15:01:04.405Z,2936
2017-10-19T15:02:16.026Z,2796
2017-10-19T15:03:27.946Z,2792
2017-10-19T15:04:40.505Z,2652
2017-10-19T15:05:52.762Z,2760
2017-10-19T15:07:05.015Z,2576
2017-10-19T15:08:17.289Z,2464
2017-10-19T15:09:29.850Z,2432
2017-10-19T15:10:42.453Z,2500
2017-10-19T15:11:54.391Z,2504
2017-10-19T15:13:06.337Z,2244
2017-10-19T15:14:18.907Z,2148
2017-10-19T15:15:31.490Z,2072
2017-10-19T15:16:43.748Z,2000
2017-10-19T15:17:56.322Z,2052
2017-10-19T15:19:07.953Z,2092
2017-10-19T15:20:19.569Z,1960
2017-10-19T15:21:31.506Z,1732
2017-10-19T15:22:44.077Z,1552
2017-10-19T15:23:56.655Z,1568
2017-10-19T15:25:08.593Z,1532
2017-10-19T15:26:21.183Z,1664
2017-10-19T15:27:33.759Z,1608
2017-10-19T15:28:46.330Z,1436
2017-10-19T15:29:58.902Z,1464
2017-10-19T15:31:11.180Z,1436
2017-10-19T15:32:23.417Z,1424
2017-10-19T15:33:35.667Z,1332
2017-10-19T15:34:48.233Z,1236
2017-10-19T15:36:00.480Z,1184
2017-10-19T15:37:12.725Z,1100
2017-10-19T15:38:24.653Z,1052
2017-10-19T15:39:36.600Z,1016
2017-10-19T15:40:48.861Z,968
2017-10-19T15:42:00.482Z,928
2017-10-19T15:43:12.728Z,880
2017-10-19T15:44:24.660Z,812
2017-10-19T15:45:36.884Z,744
2017-10-19T15:46:49.141Z,688
2017-10-19T15:48:01.422Z,644
2017-10-19T15:49:13.981Z,592
2017-10-19T15:50:26.227Z,552
2017-10-19T15:51:38.489Z,508
2017-10-19T15:52:51.068Z,464
2017-10-19T15:54:03.313Z,420
2017-10-19T15:55:15.892Z,384
2017-10-19T15:56:28.505Z,352
2017-10-19T15:57:41.376Z,324
2017-10-19T15:58:53.973Z,288
2017-10-19T16:00:06.232Z,264
2017-10-19T16:01:18.820Z,240
2017-10-19T16:02:31.408Z,216
2017-10-19T16:03:43.654Z,196
2017-10-19T16:04:55.918Z,172
2017-10-19T16:06:07.859Z,156
2017-10-19T16:07:20.442Z,136
2017-10-19T16:08:33.011Z,120
2017-10-19T16:09:45.582Z,108
2017-10-19T16:10:58.153Z,92
2017-10-19T16:12:10.409Z,76
2017-10-19T16:13:22.995Z,64
2017-10-19T16:14:35.569Z,56
2017-10-19T16:15:47.189Z,44
2017-10-19T16:16:59.432Z,40
2017-10-19T16:18:12.009Z,32
2017-10-19T16:19:24.197Z,28
2017-10-19T16:20:36.768Z,24
2017-10-19T16:21:49.346Z,16
2017-10-19T16:23:01.302Z,16
2017-10-19T16:24:13.289Z,12
2017-10-19T16:25:25.875Z,12
2017-10-19T16:26:37.804Z,8
2017-10-19T16:27:50.368Z,8
2017-10-19T16:29:02.623Z,8
2017-10-19T16:30:15.184Z,4
2017-10-19T16:31:27.754Z,4